Kezdőlap
METAR-TAF:

METAR-TAF

Repülőterek :

Jászvásár, Románia

földrajzi szélesség: 47-10N, földrajzi hosszúság: 027-38E, magasság: 102 m

Jelenlegi meteorológiai megfigyelések

A jelentés 21 perccel ezelõtt készült, 19:30 UTC
Északnyugati szél 7 kt
Hőmérséklet 10°C
Páratartalom 53%
Légköri nyomás 1017 hPa
Látótávolság 10 km, vagy több
felhőtlen 1500 m magasságban, és nincs gomolyfelhõ

METAR: LRIA 241930Z 31007KT CAVOK 10/01 Q1017

Idő: 21:51 (19:51 UTC)

Előrejelzés

A jelentés 2 órával és 51 perccel ezelõtt készült, 17:00 UTC
Az előrejelzés 24-én 18 óra UTC és 25-én 03 óra UTC között érvényes
Különbözõ irányokból fújó szél 4 kt
Látótávolság 10 km, vagy több
felhőtlen 1500 m magasságban, és nincs gomolyfelhõ

TAF: LRIA 241700Z 2418/2503 VRB04KT CAVOK

Meteorológiai megfigyelések és előrejelzések több, mint 4000 repülőtéren (METAR és TAF jelentéseket).

A térképen piros és sárga pontok jelzik az elérhető meteorológiai állomásokat.

Mozgassa az egeret a pont fölött, hogy megjelenjen az állomás neve.

Azután kattintson az időjárási megfigyelések és előrejelzések megtekintéséhez.

A térkép megváltoztatása: kattintson a fekete keresztel jelölt zöld gombra ráközelítéshez, a vonallal jelölt zöld gombra távolításhoz, vagy a zöld nyilakra a szomszédos térképek eléréséhez.


METAR-TAF: